createdAt,value
2022-09-05T00:02:48.762Z,100197.25
2022-09-05T00:05:21.544Z,100203.19
2022-09-05T00:08:08.332Z,100193.47
2022-09-05T00:11:40.348Z,100195.66
2022-09-05T00:14:13.076Z,100177.81
2022-09-05T00:17:14.161Z,100192.56
2022-09-05T00:24:22.655Z,100173.19
2022-09-05T00:24:42.409Z,100193.16
2022-09-05T00:26:33.986Z,100181.53
2022-09-05T00:29:44.914Z,100192.75
2022-09-05T00:32:42.691Z,100185.91
2022-09-05T00:35:26.187Z,100195.06
2022-09-05T00:37:55.616Z,100189.63
2022-09-05T00:40:33.576Z,100180.72
2022-09-05T00:43:17.331Z,100165.66
2022-09-05T00:45:55.322Z,100181.94
2022-09-05T00:48:46.351Z,100174.69
2022-09-05T00:51:40.122Z,100168.91
2022-09-05T00:54:41.311Z,100163.09
2022-09-05T00:57:43.048Z,100159.44
2022-09-05T01:00:36.428Z,100165.63
2022-09-05T01:03:28.533Z,100171.53
2022-09-05T01:06:16.176Z,100180.19
2022-09-05T01:09:07.763Z,100185.66
2022-09-05T01:11:42.714Z,100190.03
2022-09-05T01:14:39.320Z,100188.59
2022-09-05T01:17:16.221Z,100193.16
2022-09-05T01:20:18.496Z,100197.88
2022-09-05T01:23:06.582Z,100188.28
2022-09-05T01:25:55.175Z,100186.81
2022-09-05T01:29:14.464Z,100181.88
2022-09-05T01:31:38.372Z,100199.38
2022-09-05T01:34:38.021Z,100201.63
2022-09-05T01:37:34.191Z,100166.69
2022-09-05T01:40:27.862Z,100201.84
2022-09-05T01:43:05.103Z,100209.59
2022-09-05T01:45:56.224Z,100196.75
2022-09-05T01:48:50.837Z,100192.19
2022-09-05T01:51:31.870Z,100190.66
2022-09-05T01:54:33.353Z,100193.66
2022-09-05T01:57:19.538Z,100194.59
2022-09-05T02:00:13.768Z,100199.22
2022-09-05T02:02:57.215Z,100190.31
2022-09-05T02:06:33.302Z,100191.69
2022-09-05T02:09:18.466Z,100196.13
2022-09-05T02:12:05.677Z,100186.28
2022-09-05T02:14:58.609Z,100183.06
2022-09-05T02:17:50.568Z,100181.19
2022-09-05T02:20:48.298Z,100177.34
2022-09-05T02:23:41.089Z,100178.03
2022-09-05T02:26:24.193Z,100184.72
2022-09-05T02:29:29.365Z,100188.25
2022-09-05T02:32:09.769Z,100194.03
2022-09-05T02:35:02.064Z,100190.81
2022-09-05T02:38:38.002Z,100179.16
2022-09-05T02:45:07.124Z,100202.22
2022-09-05T02:45:14.209Z,100217.69
2022-09-05T02:47:05.883Z,100201.97
2022-09-05T02:52:39.422Z,100219.88
2022-09-05T02:57:27.556Z,100211.19
2022-09-05T02:57:37.039Z,100201.03
2022-09-05T02:59:12.329Z,100202.53
2022-09-05T03:01:52.006Z,100192.69
2022-09-05T03:04:43.294Z,100210.00
2022-09-05T03:07:28.300Z,100195.63
2022-09-05T03:10:13.168Z,100211.97
2022-09-05T03:12:50.271Z,100209.03
2022-09-05T03:15:22.867Z,100194.94
2022-09-05T03:18:20.805Z,100195.00
2022-09-05T03:21:18.113Z,100204.81
2022-09-05T03:24:19.821Z,100192.00
2022-09-05T03:27:11.647Z,100190.81
2022-09-05T03:30:09.512Z,100200.25
2022-09-05T03:33:22.025Z,100204.81
2022-09-05T03:36:14.742Z,100197.13
2022-09-05T03:38:51.149Z,100201.66
2022-09-05T03:41:40.217Z,100199.69
2022-09-05T03:44:21.851Z,100188.94
2022-09-05T03:47:16.062Z,100166.16
2022-09-05T03:53:22.470Z,100178.69
2022-09-05T03:57:15.710Z,100171.28
2022-09-05T03:57:26.662Z,100173.25
2022-09-05T03:59:40.695Z,100170.13
2022-09-05T04:04:35.130Z,100171.28
2022-09-05T04:08:10.906Z,100170.28
2022-09-05T04:08:15.980Z,100177.69
2022-09-05T04:11:00.811Z,100182.69
2022-09-05T04:14:23.064Z,100182.69
2022-09-05T04:16:54.095Z,100185.00
2022-09-05T04:19:30.218Z,100197.22
2022-09-05T04:22:10.799Z,100193.41
2022-09-05T04:24:57.286Z,100192.91
2022-09-05T04:27:55.183Z,100193.09
2022-09-05T04:30:39.809Z,100200.53
2022-09-05T04:34:00.328Z,100192.28
2022-09-05T04:36:36.671Z,100194.75
2022-09-05T04:39:19.751Z,100198.38
2022-09-05T04:41:57.062Z,100194.44
2022-09-05T04:44:36.410Z,100196.56
2022-09-05T04:47:17.156Z,100207.47
2022-09-05T04:49:58.481Z,100198.53
2022-09-05T04:52:48.988Z,100200.69
2022-09-05T04:55:46.857Z,100201.50
2022-09-05T05:00:22.819Z,100197.22
2022-09-05T05:06:03.875Z,100216.50
2022-09-05T05:06:12.388Z,100194.03
2022-09-05T05:07:42.436Z,100211.81
2022-09-05T05:12:56.952Z,100209.25
2022-09-05T05:17:55.434Z,100212.75
2022-09-05T05:18:12.505Z,100204.63
2022-09-05T05:19:48.840Z,100197.88
2022-09-05T05:22:34.027Z,100205.25
2022-09-05T05:25:03.224Z,100207.28
2022-09-05T05:27:48.419Z,100208.09
2022-09-05T05:30:28.388Z,100213.66
2022-09-05T05:32:58.011Z,100214.72
2022-09-05T05:35:38.475Z,100212.03
2022-09-05T05:38:41.477Z,100212.75
2022-09-05T05:41:24.594Z,100216.19
2022-09-05T05:43:54.243Z,100206.97
2022-09-05T05:46:40.915Z,100198.47
2022-09-05T05:49:46.867Z,100205.56
2022-09-05T05:52:58.272Z,100207.59
2022-09-05T05:55:53.580Z,100192.41
2022-09-05T05:58:58.946Z,100186.63
2022-09-05T06:02:03.926Z,100193.28
2022-09-05T06:05:23.174Z,100188.63
2022-09-05T06:10:31.809Z,100199.38
2022-09-05T06:14:49.648Z,100197.41
2022-09-05T06:15:34.161Z,100199.19
2022-09-05T06:18:31.687Z,100201.13
2022-09-05T06:22:09.904Z,100197.16
2022-09-05T06:24:04.048Z,100195.63
2022-09-05T06:27:05.649Z,100197.63
2022-09-05T06:29:58.410Z,100198.13
2022-09-05T06:32:56.697Z,100182.25
2022-09-05T06:35:43.926Z,100170.00
2022-09-05T06:39:01.896Z,100179.59
2022-09-05T06:42:42.375Z,100175.75
2022-09-05T06:45:28.292Z,100173.47
2022-09-05T06:48:44.246Z,100164.97
2022-09-05T06:51:45.795Z,100171.53
2022-09-05T06:54:33.541Z,100161.38
2022-09-05T06:57:46.661Z,100163.81
2022-09-05T07:00:39.633Z,100156.94
2022-09-05T07:03:29.985Z,100164.81
2022-09-05T07:06:08.237Z,100147.44
2022-09-05T07:08:54.893Z,100158.13
2022-09-05T07:11:41.791Z,100160.25
2022-09-05T07:14:32.607Z,100161.06
2022-09-05T07:17:31.450Z,100138.28
2022-09-05T07:20:16.628Z,100160.06
2022-09-05T07:24:00.708Z,100149.41
2022-09-05T07:26:20.505Z,100149.84
2022-09-05T07:29:06.229Z,100154.13
2022-09-05T07:31:40.002Z,100150.28
2022-09-05T07:34:21.717Z,100159.69
2022-09-05T07:37:14.664Z,100163.91
2022-09-05T07:39:56.131Z,100134.84
2022-09-05T07:42:39.199Z,100155.47
2022-09-05T07:45:21.667Z,100136.28
2022-09-05T07:48:00.461Z,100146.44
2022-09-05T07:52:19.104Z,100147.00
2022-09-05T07:56:49.872Z,100126.28
2022-09-05T07:57:00.912Z,100125.38
2022-09-05T07:59:00.130Z,100131.56
2022-09-05T08:01:28.319Z,100127.84
2022-09-05T08:04:00.388Z,100129.03
2022-09-05T08:07:25.668Z,100132.91
2022-09-05T08:10:06.283Z,100137.91
2022-09-05T08:13:22.446Z,100136.78
2022-09-05T08:16:04.300Z,100099.28
2022-09-05T08:18:24.974Z,100140.00
2022-09-05T08:21:15.163Z,100132.34
2022-09-05T08:24:24.561Z,100133.06
2022-09-05T08:27:16.489Z,100132.59
2022-09-05T08:30:24.396Z,100130.50
2022-09-05T08:32:51.532Z,100129.88
2022-09-05T08:36:01.575Z,100135.66
2022-09-05T08:38:37.437Z,100138.56
2022-09-05T08:41:50.299Z,100126.75
2022-09-05T08:46:43.265Z,100118.41
2022-09-05T08:48:19.074Z,100129.91
2022-09-05T08:51:11.135Z,100127.72
2022-09-05T08:54:02.850Z,100124.19
2022-09-05T08:56:50.884Z,100100.97
2022-09-05T08:59:32.714Z,100120.88
2022-09-05T09:02:47.547Z,100117.78
2022-09-05T09:06:13.670Z,100118.66
2022-09-05T09:09:05.300Z,100109.56
2022-09-05T09:11:41.260Z,100114.19
2022-09-05T09:14:33.249Z,100106.91
2022-09-05T09:17:22.988Z,100119.06
2022-09-05T09:19:54.195Z,100114.63
2022-09-05T09:22:45.146Z,100112.53
2022-09-05T09:25:49.259Z,100110.22
2022-09-05T09:29:03.555Z,100116.34
2022-09-05T09:31:46.842Z,100104.97
2022-09-05T09:34:19.086Z,100104.06
2022-09-05T09:37:09.065Z,100105.00
2022-09-05T09:39:39.677Z,100102.25
2022-09-05T09:42:33.181Z,100101.97
2022-09-05T09:45:27.825Z,100104.09
2022-09-05T09:48:11.151Z,100088.78
2022-09-05T09:50:41.940Z,100097.41
2022-09-05T09:53:41.015Z,100101.88
2022-09-05T09:56:47.777Z,100104.50
2022-09-05T09:59:34.253Z,100101.00
2022-09-05T10:04:19.019Z,100105.41
2022-09-05T10:10:50.965Z,100105.25
2022-09-05T10:10:57.755Z,100110.81
2022-09-05T10:12:21.545Z,100116.44
2022-09-05T10:15:30.187Z,100113.13
2022-09-05T10:18:31.518Z,100102.38
2022-09-05T10:21:23.716Z,100108.91
2022-09-05T10:24:09.754Z,100103.41
2022-09-05T10:27:02.200Z,100094.50
2022-09-05T10:29:52.853Z,100109.81
2022-09-05T10:34:53.455Z,100091.16
2022-09-05T10:35:37.705Z,100087.03
2022-09-05T10:38:26.020Z,100101.59
2022-09-05T10:41:21.728Z,100104.09
2022-09-05T10:44:06.901Z,100088.03
2022-09-05T10:46:56.818Z,100088.03
2022-09-05T10:49:30.134Z,100078.63
2022-09-05T10:52:30.603Z,100086.56
2022-09-05T10:55:13.602Z,100094.97
2022-09-05T10:58:07.645Z,100092.88
2022-09-05T11:02:26.703Z,100098.50
2022-09-05T11:04:13.389Z,100094.75
2022-09-05T11:06:53.248Z,100098.91
2022-09-05T11:09:39.640Z,100091.31
2022-09-05T11:12:31.216Z,100077.59
2022-09-05T11:15:04.576Z,100075.81
2022-09-05T11:18:01.565Z,100080.47
2022-09-05T11:20:41.449Z,100073.88
2022-09-05T11:23:20.116Z,100080.34
2022-09-05T11:26:12.458Z,100076.06
2022-09-05T11:28:59.835Z,100073.56
2022-09-05T11:33:53.470Z,100065.16
2022-09-05T11:39:45.501Z,100061.69
2022-09-05T11:39:53.550Z,100057.22
2022-09-05T11:41:45.621Z,100075.94
2022-09-05T11:44:26.422Z,100077.09
2022-09-05T11:46:58.318Z,100066.84
2022-09-05T11:50:19.086Z,100064.91
2022-09-05T11:53:18.401Z,100064.41
2022-09-05T11:56:08.030Z,100052.53
2022-09-05T11:59:08.524Z,100048.59
2022-09-05T12:02:08.352Z,100053.56
2022-09-05T12:05:48.700Z,100052.25
2022-09-05T12:08:18.688Z,100056.25
2022-09-05T12:11:14.796Z,100056.59
2022-09-05T12:13:49.015Z,100051.28
2022-09-05T12:16:43.091Z,100058.25
2022-09-05T12:19:23.634Z,100051.50
2022-09-05T12:22:09.063Z,100048.19
2022-09-05T12:25:25.620Z,100038.81
2022-09-05T12:29:27.658Z,100035.84
2022-09-05T12:31:08.509Z,100061.28
2022-09-05T12:36:07.313Z,100057.44
2022-09-05T12:40:43.669Z,100065.38
2022-09-05T12:41:35.134Z,100055.97
2022-09-05T12:44:29.920Z,100054.66
2022-09-05T12:45:50.596Z,100047.06
2022-09-05T12:48:40.634Z,100038.31
2022-09-05T12:51:45.994Z,100040.81
2022-09-05T12:54:33.697Z,100035.34
2022-09-05T13:03:00.827Z,100046.53
2022-09-05T13:03:09.169Z,100048.34
2022-09-05T13:03:30.161Z,100048.66
2022-09-05T13:06:04.281Z,100043.69
2022-09-05T13:08:59.426Z,100049.06
2022-09-05T13:14:52.973Z,100049.34
2022-09-05T13:14:56.209Z,100039.09
2022-09-05T13:17:16.393Z,100054.25
2022-09-05T13:19:51.968Z,100043.00
2022-09-05T13:22:24.512Z,100041.31
2022-09-05T13:25:09.044Z,100040.09
2022-09-05T13:27:47.797Z,100053.72
2022-09-05T13:33:20.566Z,100046.59
2022-09-05T13:38:04.296Z,100028.38
2022-09-05T13:38:08.165Z,100041.44
2022-09-05T13:39:18.770Z,100033.91
2022-09-05T13:42:02.088Z,100040.25
2022-09-05T13:44:37.994Z,100032.44
2022-09-05T13:47:38.900Z,100044.88
2022-09-05T13:50:14.453Z,100040.47
2022-09-05T13:52:47.578Z,100036.97
2022-09-05T13:55:18.506Z,100037.88
2022-09-05T13:58:12.383Z,100033.47
2022-09-05T14:00:43.953Z,100035.22
2022-09-05T14:03:44.695Z,100042.50
2022-09-05T14:06:45.794Z,100041.88
2022-09-05T14:09:59.946Z,100042.25
2022-09-05T14:12:49.428Z,100036.03
2022-09-05T14:15:25.193Z,100034.69
2022-09-05T14:18:20.265Z,100034.28
2022-09-05T14:21:21.165Z,100034.34
2022-09-05T14:24:09.585Z,100036.72
2022-09-05T14:26:52.742Z,100021.69
2022-09-05T14:29:27.027Z,100017.56
2022-09-05T14:37:35.215Z,100021.28
2022-09-05T14:37:54.601Z,100024.22
2022-09-05T14:38:51.292Z,100012.75
2022-09-05T14:41:31.839Z,100030.03
2022-09-05T14:44:05.891Z,100018.97
2022-09-05T14:47:02.572Z,100005.19
2022-09-05T14:50:21.269Z,100009.31
2022-09-05T14:57:23.937Z,100016.81
2022-09-05T15:02:48.384Z,100016.81
2022-09-05T15:02:50.650Z,100014.88
2022-09-05T15:05:12.156Z,100023.72
2022-09-05T15:07:46.771Z,100004.22
2022-09-05T15:12:18.428Z,100021.91
2022-09-05T15:13:14.125Z,100013.06
2022-09-05T15:16:02.075Z,100026.34
2022-09-05T15:18:45.992Z,100012.38
2022-09-05T15:21:35.640Z,99997.59
2022-09-05T15:24:30.948Z,100004.50
2022-09-05T15:27:01.657Z,100016.66
2022-09-05T15:29:35.597Z,100005.47
2022-09-05T15:32:16.132Z,100004.38
2022-09-05T15:34:44.995Z,99999.78
2022-09-05T15:37:29.762Z,100004.22
2022-09-05T15:40:02.078Z,99989.28
2022-09-05T15:42:38.195Z,99997.03
2022-09-05T15:45:11.378Z,99996.63
2022-09-05T15:47:47.327Z,99992.59
2022-09-05T15:50:23.610Z,100004.06
2022-09-05T15:52:55.788Z,99998.00
2022-09-05T15:55:26.695Z,99999.66
2022-09-05T15:58:08.057Z,99986.81
2022-09-05T16:00:51.915Z,99982.91
2022-09-05T16:04:07.043Z,99989.16
2022-09-05T16:10:27.108Z,99974.13
2022-09-05T16:10:42.605Z,99983.22
2022-09-05T16:12:14.422Z,99990.25
2022-09-05T16:15:20.383Z,99989.16
2022-09-05T16:23:14.958Z,99991.09
2022-09-05T16:23:32.503Z,99993.72
2022-09-05T16:23:52.102Z,99987.50
2022-09-05T16:26:26.366Z,99951.31
2022-09-05T16:29:12.085Z,99976.31
2022-09-05T16:32:08.171Z,99982.38
2022-09-05T16:34:53.164Z,99981.41
2022-09-05T16:37:31.067Z,99967.44
2022-09-05T16:40:19.848Z,99970.91
2022-09-05T16:42:50.701Z,99977.13
2022-09-05T16:46:05.175Z,99977.97
2022-09-05T16:48:57.832Z,99976.16
2022-09-05T16:51:36.560Z,99964.59
2022-09-05T16:54:32.601Z,99969.41
2022-09-05T16:57:12.500Z,99966.78
2022-09-05T16:59:44.259Z,99960.53
2022-09-05T17:02:40.476Z,99962.34
2022-09-05T17:05:23.620Z,99965.13
2022-09-05T17:08:18.458Z,99967.88
2022-09-05T17:10:58.251Z,99961.94
2022-09-05T17:13:53.564Z,99962.94
2022-09-05T17:16:53.071Z,99963.75
2022-09-05T17:19:25.434Z,99955.06
2022-09-05T17:24:55.343Z,99956.56
2022-09-05T17:29:17.140Z,99947.19
2022-09-05T17:29:34.292Z,99950.34
2022-09-05T17:31:59.497Z,99942.59
2022-09-05T17:34:52.054Z,99946.59
2022-09-05T17:37:54.726Z,99948.38
2022-09-05T17:41:00.325Z,99946.88
2022-09-05T17:43:39.412Z,99947.84
2022-09-05T17:46:30.310Z,99941.78
2022-09-05T17:49:19.719Z,99932.09
2022-09-05T17:51:54.210Z,99925.06
2022-09-05T17:54:31.513Z,99928.50
2022-09-05T17:57:30.212Z,99909.59
2022-09-05T18:00:22.180Z,99933.19
2022-09-05T18:02:58.122Z,99923.81
2022-09-05T18:06:01.591Z,99928.22
2022-09-05T18:08:52.896Z,99903.38
2022-09-05T18:11:44.898Z,99900.72
2022-09-05T18:14:25.090Z,99890.09
2022-09-05T18:17:37.227Z,99884.41
2022-09-05T18:19:44.077Z,99888.13
2022-09-05T18:22:22.341Z,99885.50
2022-09-05T18:28:20.235Z,99880.13
2022-09-05T18:30:53.113Z,99864.50
2022-09-05T18:33:53.727Z,99867.66
2022-09-05T18:36:25.911Z,99867.81
2022-09-05T18:39:26.942Z,99880.78
2022-09-05T18:42:26.111Z,99864.88
2022-09-05T18:45:15.337Z,99837.75
2022-09-05T18:48:01.539Z,99857.84
2022-09-05T18:50:34.825Z,99865.72
2022-09-05T18:53:10.616Z,99864.06
2022-09-05T18:56:22.026Z,99853.72
2022-09-05T18:59:09.971Z,99843.88
2022-09-05T19:01:59.554Z,99820.34
2022-09-05T19:04:41.467Z,99851.09
2022-09-05T19:07:24.094Z,99840.19
2022-09-05T19:10:03.590Z,99851.22
2022-09-05T19:12:56.323Z,99845.69
2022-09-05T19:15:31.478Z,99857.00
2022-09-05T19:18:25.789Z,99857.84
2022-09-05T19:21:04.723Z,99857.84
2022-09-05T19:23:58.974Z,99846.81
2022-09-05T19:26:31.961Z,99850.63
2022-09-05T19:36:49.970Z,99859.50
2022-09-05T19:37:07.768Z,99848.97
2022-09-05T19:37:15.601Z,99846.22
2022-09-05T19:37:48.969Z,99835.84
2022-09-05T19:47:34.630Z,99840.97
2022-09-05T19:47:36.395Z,99831.50
2022-09-05T19:47:43.623Z,99843.88
2022-09-05T19:49:14.217Z,99838.81
2022-09-05T19:51:43.311Z,99816.00
2022-09-05T19:54:30.432Z,99803.03
2022-09-05T19:57:02.706Z,99786.22
2022-09-05T19:59:44.612Z,99822.06
2022-09-05T20:02:23.487Z,99805.09
2022-09-05T20:04:57.537Z,99822.06
2022-09-05T20:07:33.669Z,99815.81
2022-09-05T20:10:06.447Z,99797.88
2022-09-05T20:12:39.993Z,99810.13
2022-09-05T20:15:35.854Z,99721.59
2022-09-05T20:18:35.876Z,99798.66
2022-09-05T20:21:15.466Z,99771.84
2022-09-05T20:23:50.004Z,99775.69
2022-09-05T20:26:22.993Z,99768.63
2022-09-05T20:29:00.734Z,99767.81
2022-09-05T20:31:33.787Z,99762.69
2022-09-05T20:34:25.960Z,99747.03
2022-09-05T20:43:19.616Z,99750.84
2022-09-05T20:43:29.306Z,99750.53
2022-09-05T20:43:31.960Z,99732.25
2022-09-05T20:46:16.092Z,99753.16
2022-09-05T20:54:13.486Z,99732.97
2022-09-05T20:54:14.690Z,99743.50
2022-09-05T20:54:45.527Z,99738.25
2022-09-05T20:57:28.921Z,99734.78
2022-09-05T21:00:06.044Z,99726.25
2022-09-05T21:02:34.770Z,99720.84
2022-09-05T21:05:20.719Z,99731.13
2022-09-05T21:08:03.787Z,99740.88
2022-09-05T21:11:00.140Z,99749.56
2022-09-05T21:13:32.465Z,99742.97
2022-09-05T21:16:01.360Z,99742.81
2022-09-05T21:18:37.058Z,99732.25
2022-09-05T21:21:29.025Z,99759.56
2022-09-05T21:24:17.766Z,99758.06
2022-09-05T21:26:49.766Z,99741.78
2022-09-05T21:29:33.287Z,99750.09
2022-09-05T21:32:10.764Z,99731.72
2022-09-05T21:34:54.531Z,99732.69
2022-09-05T21:37:23.067Z,99731.56
2022-09-05T21:39:58.412Z,99708.50
2022-09-05T21:43:37.492Z,99721.47
2022-09-05T21:47:39.163Z,99687.22
2022-09-05T21:48:16.241Z,99705.50
2022-09-05T21:50:52.089Z,99720.97
2022-09-05T21:57:00.418Z,99713.38
2022-09-05T21:59:20.446Z,99717.81
2022-09-05T21:59:46.378Z,99709.94
2022-09-05T22:02:17.704Z,99713.38
2022-09-05T22:04:50.427Z,99712.72
2022-09-05T22:07:21.701Z,99719.47
2022-09-05T22:10:04.829Z,99725.53
2022-09-05T22:12:39.429Z,99706.34
2022-09-05T22:15:28.022Z,99694.84
2022-09-05T22:18:16.989Z,99691.09
2022-09-05T22:21:31.732Z,99679.09
2022-09-05T22:23:47.639Z,99680.91
2022-09-05T22:26:21.221Z,99684.50
2022-09-05T22:28:52.096Z,99669.50
2022-09-05T22:31:20.963Z,99641.31
2022-09-05T22:33:51.222Z,99664.09
2022-09-05T22:36:20.323Z,99665.81
2022-09-05T22:38:48.629Z,99658.94
2022-09-05T22:41:18.161Z,99646.78
2022-09-05T22:43:58.369Z,99656.31
2022-09-05T22:46:26.707Z,99651.34
2022-09-05T22:48:54.714Z,99645.44
2022-09-05T22:51:22.720Z,99630.81
2022-09-05T22:53:56.049Z,99617.94
2022-09-05T22:56:50.385Z,99640.03
2022-09-05T22:59:20.025Z,99645.94
2022-09-05T23:01:48.207Z,99645.94
2022-09-05T23:04:16.249Z,99624.94
2022-09-05T23:06:44.603Z,99605.22
2022-09-05T23:09:12.712Z,99614.59
2022-09-05T23:11:40.851Z,99629.06
2022-09-05T23:14:10.332Z,99611.53
2022-09-05T23:16:38.382Z,99619.41
2022-09-05T23:19:06.475Z,99619.69
2022-09-05T23:21:35.412Z,99606.06
2022-09-05T23:24:03.618Z,99607.56
2022-09-05T23:26:31.712Z,99592.78
2022-09-05T23:29:01.177Z,99578.69
2022-09-05T23:31:29.283Z,99580.16
2022-09-05T23:33:58.987Z,99566.00
2022-09-05T23:36:27.289Z,99570.50
2022-09-05T23:38:55.312Z,99574.09
2022-09-05T23:41:23.294Z,99546.66
2022-09-05T23:43:51.546Z,99561.28
2022-09-05T23:46:19.591Z,99564.72
2022-09-05T23:48:47.724Z,99572.09
2022-09-05T23:51:15.972Z,99566.00
2022-09-05T23:53:44.152Z,99566.84
2022-09-05T23:56:12.346Z,99565.03
2022-09-05T23:58:42.029Z,99560.75
